• Join FlightAware (Why Join?)
  • Login
  • US Flag 
04:38PM EDT


 

Airport Tracker/Info


-or-


 

Live Flight TrackerFlight Track Log ✈ N225SB ✈ 11-Nov-2013 ✈ KBED - KBTV

Flight Track Log - Related Links

Times and Time Zones

All times are in EST time to prevent confusion due to time zone crossing. See the N225SB flight status page for this flight to view local times or setup timezone preferences in your user account.

Time Position Orientation Groundspeed Altitude Reporting Facility
EST Latitude Longitude Course Direction KTS MPH feet Rate Location/Type
07:09AM 42.4833 -71.3167 360° North 182 209 1,200  Level KA90
07:09AM 42.5167 -71.3167 360° North 240 276 3,500 3,540 Climbing KA90
07:10AM 42.5667 -71.2833 26° Northeast 234 269 6,900 2,880 Climbing KA90
07:12AM 42.6606 -71.2844 360° North 254 292 10,200 2,580 Climbing Boston Center
07:13AM 42.7422 -71.2778 North 293 337 13,000 2,760 Climbing Boston Center
07:14AM 42.8281 -71.3156 342° North 310 357 15,800 1,500 Climbing Boston Center
07:15AM 42.8978 -71.3961 320° Northwest 324 373 16,100 120 Climbing Boston Center
07:16AM 42.9708 -71.4778 321° Northwest 337 388 16,100  Level Boston Center
07:17AM 43.0453 -71.5583 322° Northwest 341 392 16,100 -60 Level Boston Center
07:18AM 43.1197 -71.6383 322° Northwest 340 391 16,000  Descending Boston Center
07:19AM 43.1939 -71.7200 321° Northwest 342 394 16,100  Climbing Boston Center
07:20AM 43.2739 -71.8072 322° Northwest 342 394 16,100 -60 Level Boston Center
07:21AM 43.3489 -71.8889 322° Northwest 344 396 16,000 -60 Descending Boston Center
07:22AM 43.4244 -71.9714 322° Northwest 348 400 16,000  Level Boston Center
07:23AM 43.5017 -72.0497 324° Northwest 347 399 16,000  Level Boston Center
07:24AM 43.5786 -72.1300 323° Northwest 348 400 16,000  Level Boston Center
07:25AM 43.6522 -72.2053 324° Northwest 337 388 16,000  Level Boston Center
07:26AM 43.7264 -72.2819 323° Northwest 334 384 16,000  Level Boston Center
07:27AM 43.8017 -72.3617 323° Northwest 339 390 16,000 -660 Level Boston Center
07:28AM 43.8803 -72.4417 324° Northwest 348 400 14,700 -1,620 Descending Boston Center
07:29AM 43.9642 -72.5344 321° Northwest 347 399 12,700 -1,920 Descending Boston Center
07:30AM 44.0356 -72.6072 324° Northwest 326 375 10,900 -1,500 Descending Boston Center
07:31AM 44.1014 -72.6653 328° Northwest 276 318 9,800 -1,260 Descending Boston Center
07:32AM 44.1575 -72.7136 328° Northwest 225 259 8,400 -1,380 Descending Boston Center
07:33AM 44.2058 -72.7553 328° Northwest 209 241 7,100 -720 Descending Boston Center
07:34AM 44.2497 -72.7919 329° Northwest 189 217 7,000 -180 Descending Boston Center
07:35AM 44.2814 -72.8447 310° West 171 197 6,800 -780 Descending Boston Center
07:36AM 44.3097 -72.8958 308° West 170 196 5,500 -1,140 Descending Boston Center
07:37AM 44.3428 -72.9425 315° West 169 194 4,500 -1,140 Descending Boston Center
07:38AM 44.3753 -72.9978 309° West 171 197 3,300 -1,140 Descending Boston Center
07:39AM 44.4067 -73.0469 312° West 172 198 2,300 -900 Descending Boston Center
07:40AM 44.4336 -73.0906 311° West 155 178 1,500 -900 Descending Boston Center
07:41AM 44.4564 -73.1267 311° West 131 151 600 -900 Descending Boston Center
07:43AM 44.4667 -73.1500 316° Northwest  Level FlightAware Approximate
07:50AM 44.4719 -73.1533 316° Northwest  Level Estimated
07:51AM 44.4667 -73.1500 316° Northwest  Level FlightAware Approximate